Time,TemperatureF,DewpointF,PressureIn,WindDirection,WindDirectionDegrees,WindSpeedMPH,WindSpeedGustMPH,Humidity,HourlyPrecipIn,Conditions,Clouds,dailyrainin,SolarRadiationWatts/m^2,SoftwareType,DateUTC
2013-07-07 00:01:00,64.0,64.0,-100.00,SW,230,2.0,6.0,100,0.08,,,1.86,0.000000,,2013-07-07 05:01:00,
2013-07-07 00:11:00,64.0,64.0,-100.00,SW,230,2.0,6.0,100,0.08,,,1.86,0.000000,,2013-07-07 05:11:00,
2013-07-07 00:41:00,65.0,65.0,-100.00,ESE,119,4.0,9.0,100,0.06,,,1.74,0.000000,,2013-07-07 05:41:00,
2013-07-07 00:51:00,65.0,65.0,-100.00,ESE,119,4.0,9.0,100,0.06,,,1.74,0.000000,,2013-07-07 05:51:00,
2013-07-07 01:01:00,65.0,65.0,-100.00,ESE,119,4.0,9.0,100,0.06,,,1.74,0.000000,,2013-07-07 06:01:00,
2013-07-07 01:11:00,65.0,65.0,-100.00,ESE,119,4.0,9.0,100,0.06,,,1.74,0.000000,,2013-07-07 06:11:00,
2013-07-07 01:43:00,65.0,65.0,-100.00,South,184,2.0,10.0,100,0.02,,,1.50,0.000000,,2013-07-07 06:43:00,
2013-07-07 01:52:00,65.0,65.0,-100.00,South,184,2.0,10.0,100,0.02,,,1.50,0.000000,,2013-07-07 06:52:00,
2013-07-07 02:02:00,65.0,65.0,-100.00,South,184,2.0,10.0,100,0.02,,,1.50,0.000000,,2013-07-07 07:02:00,
2013-07-07 02:11:00,65.0,65.0,-100.00,South,184,2.0,10.0,100,0.02,,,1.50,0.000000,,2013-07-07 07:11:00,
2013-07-07 02:44:00,65.0,65.0,-100.00,SW,226,3.0,7.0,100,0.00,,,1.43,0.000000,,2013-07-07 07:44:00,
2013-07-07 02:53:00,65.0,65.0,-100.00,SW,226,3.0,7.0,100,0.00,,,1.43,0.000000,,2013-07-07 07:53:00,
2013-07-07 03:02:00,65.0,65.0,-100.00,SW,226,3.0,7.0,100,0.00,,,1.43,0.000000,,2013-07-07 08:02:00,
2013-07-07 03:12:00,65.0,65.0,-100.00,SW,226,3.0,7.0,100,0.00,,,1.43,0.000000,,2013-07-07 08:12:00,
2013-07-07 03:44:00,65.0,65.0,-100.00,WSW,247,2.0,6.0,100,0.01,,,1.41,0.000000,,2013-07-07 08:44:00,
2013-07-07 03:53:00,65.0,65.0,-100.00,WSW,247,2.0,6.0,100,0.01,,,1.41,0.000000,,2013-07-07 08:53:00,
2013-07-07 04:02:00,65.0,65.0,-100.00,WSW,247,2.0,6.0,100,0.01,,,1.41,0.000000,,2013-07-07 09:02:00,
2013-07-07 04:12:00,65.0,65.0,-100.00,WSW,247,2.0,6.0,100,0.01,,,1.41,0.000000,,2013-07-07 09:12:00,
2013-07-07 04:43:00,64.0,64.0,-100.00,SW,226,0.0,3.0,100,0.00,,,1.39,0.000000,,2013-07-07 09:43:00,
2013-07-07 04:53:00,64.0,64.0,-100.00,SW,226,0.0,3.0,100,0.00,,,1.39,0.000000,,2013-07-07 09:53:00,
2013-07-07 05:03:00,64.0,64.0,-100.00,SW,226,0.0,3.0,100,0.00,,,1.39,0.000000,,2013-07-07 10:03:00,
2013-07-07 05:12:00,64.0,64.0,-100.00,SW,226,0.0,3.0,100,0.00,,,1.39,0.000000,,2013-07-07 10:12:00,
2013-07-07 05:43:00,63.0,63.0,-100.00,East,88,0.0,2.0,100,0.00,,,1.37,0.000000,,2013-07-07 10:43:00,
2013-07-07 05:52:00,63.0,63.0,-100.00,East,88,0.0,2.0,100,0.00,,,1.37,0.000000,,2013-07-07 10:52:00,
2013-07-07 06:02:00,63.0,63.0,-100.00,East,88,0.0,2.0,100,0.00,,,1.37,0.000000,,2013-07-07 11:02:00,
2013-07-07 06:11:00,63.0,63.0,-100.00,East,88,0.0,2.0,100,0.00,,,1.37,0.000000,,2013-07-07 11:11:00,
2013-07-07 06:43:00,64.0,64.0,-100.00,North,3,0.0,2.0,100,0.00,,,1.37,4.000000,,2013-07-07 11:43:00,
2013-07-07 06:53:00,64.0,64.0,-100.00,North,3,0.0,2.0,100,0.00,,,1.37,4.000000,,2013-07-07 11:53:00,
2013-07-07 07:02:00,64.0,64.0,-100.00,North,3,0.0,2.0,100,0.00,,,1.37,4.000000,,2013-07-07 12:02:00,
2013-07-07 07:12:00,64.0,64.0,-100.00,North,3,0.0,2.0,100,0.00,,,1.37,4.000000,,2013-07-07 12:12:00,
2013-07-07 07:43:00,66.0,66.0,-100.00,South,180,0.0,2.0,100,0.00,,,1.37,50.000000,,2013-07-07 12:43:00,
2013-07-07 07:52:00,66.0,66.0,-100.00,South,180,0.0,2.0,100,0.00,,,1.37,50.000000,,2013-07-07 12:52:00,
2013-07-07 08:02:00,66.0,66.0,-100.00,South,180,0.0,2.0,100,0.00,,,1.37,50.000000,,2013-07-07 13:02:00,
2013-07-07 08:12:00,66.0,66.0,-100.00,South,180,0.0,2.0,100,0.00,,,1.37,50.000000,,2013-07-07 13:12:00,
2013-07-07 08:43:00,72.0,69.0,-100.00,SSW,211,2.0,5.0,90,0.00,,,1.37,260.000000,,2013-07-07 13:43:00,
2013-07-07 08:52:00,72.0,69.0,-100.00,SSW,211,2.0,5.0,90,0.00,,,1.37,260.000000,,2013-07-07 13:52:00,
2013-07-07 09:02:00,72.0,69.0,-100.00,SSW,211,2.0,5.0,90,0.00,,,1.37,260.000000,,2013-07-07 14:02:00,
2013-07-07 09:12:00,72.0,69.0,-100.00,SSW,211,2.0,5.0,90,0.00,,,1.37,260.000000,,2013-07-07 14:12:00,
2013-07-07 09:43:00,76.0,71.0,-100.00,WSW,242,5.0,10.0,85,0.00,,,1.36,427.000000,,2013-07-07 14:43:00,
2013-07-07 09:53:00,76.0,71.0,-100.00,WSW,242,5.0,10.0,85,0.00,,,1.36,427.000000,,2013-07-07 14:53:00,
2013-07-07 10:02:00,76.0,71.0,-100.00,WSW,242,5.0,10.0,85,0.00,,,1.36,427.000000,,2013-07-07 15:02:00,
2013-07-07 10:11:00,76.0,71.0,-100.00,WSW,242,5.0,10.0,85,0.00,,,1.36,427.000000,,2013-07-07 15:11:00,
2013-07-07 10:43:00,79.0,72.0,-100.00,WSW,244,3.0,9.0,80,0.00,,,1.36,451.000000,,2013-07-07 15:43:00,
2013-07-07 10:52:00,79.0,72.0,-100.00,WSW,244,3.0,9.0,80,0.00,,,1.36,451.000000,,2013-07-07 15:52:00,
2013-07-07 11:01:00,79.0,72.0,-100.00,WSW,244,3.0,9.0,80,0.00,,,1.36,451.000000,,2013-07-07 16:01:00,
2013-07-07 11:11:00,79.0,72.0,-100.00,WSW,244,3.0,9.0,80,0.00,,,1.36,451.000000,,2013-07-07 16:11:00,
2013-07-07 11:43:00,82.0,72.0,-100.00,WSW,242,4.0,9.0,73,0.00,,,1.36,673.000000,,2013-07-07 16:43:00,
2013-07-07 11:53:00,82.0,72.0,-100.00,WSW,242,4.0,9.0,73,0.00,,,1.36,673.000000,,2013-07-07 16:53:00,
2013-07-07 12:02:00,82.0,72.0,-100.00,WSW,242,4.0,9.0,73,0.00,,,1.36,673.000000,,2013-07-07 17:02:00,
2013-07-07 12:12:00,82.0,72.0,-100.00,WSW,242,4.0,9.0,73,0.00,,,1.36,673.000000,,2013-07-07 17:12:00,
2013-07-07 12:43:00,85.0,73.0,-100.00,NE,41,2.0,7.0,67,0.00,,,1.36,794.000000,,2013-07-07 17:43:00,
2013-07-07 12:53:00,85.0,73.0,-100.00,NE,41,2.0,7.0,67,0.00,,,1.36,794.000000,,2013-07-07 17:53:00,
2013-07-07 13:02:00,85.0,73.0,-100.00,NE,41,2.0,7.0,67,0.00,,,1.36,794.000000,,2013-07-07 18:02:00,
2013-07-07 13:11:00,85.0,73.0,-100.00,NE,41,2.0,7.0,67,0.00,,,1.36,794.000000,,2013-07-07 18:11:00,
2013-07-07 13:43:00,87.0,72.0,-100.00,SE,143,4.0,8.0,62,0.00,,,1.36,623.000000,,2013-07-07 18:43:00,
2013-07-07 13:53:00,87.0,72.0,-100.00,SE,143,4.0,8.0,62,0.00,,,1.36,623.000000,,2013-07-07 18:53:00,
2013-07-07 14:01:00,87.0,72.0,-100.00,SE,143,4.0,8.0,62,0.00,,,1.36,623.000000,,2013-07-07 19:01:00,
2013-07-07 14:11:00,87.0,72.0,-100.00,SE,143,4.0,8.0,62,0.00,,,1.36,623.000000,,2013-07-07 19:11:00,
2013-07-07 14:43:00,89.0,73.0,-100.00,SSE,166,2.0,6.0,59,0.00,,,1.36,825.000000,,2013-07-07 19:43:00,
2013-07-07 14:54:00,89.0,73.0,-100.00,SSE,166,2.0,6.0,59,0.00,,,1.36,825.000000,,2013-07-07 19:54:00,
2013-07-07 15:02:00,89.0,73.0,-100.00,SSE,166,2.0,6.0,59,0.00,,,1.36,825.000000,,2013-07-07 20:02:00,
2013-07-07 15:11:00,89.0,73.0,-100.00,SSE,166,2.0,6.0,59,0.00,,,1.36,825.000000,,2013-07-07 20:11:00,
2013-07-07 15:42:00,88.0,71.0,-100.00,SE,133,4.0,8.0,58,0.00,,,1.36,709.000000,,2013-07-07 20:42:00,
2013-07-07 15:53:00,88.0,71.0,-100.00,SE,133,4.0,8.0,58,0.00,,,1.36,709.000000,,2013-07-07 20:53:00,
2013-07-07 16:02:00,88.0,71.0,-100.00,SE,133,4.0,8.0,58,0.00,,,1.36,709.000000,,2013-07-07 21:02:00,
2013-07-07 16:11:00,88.0,71.0,-100.00,SE,133,4.0,8.0,58,0.00,,,1.36,709.000000,,2013-07-07 21:11:00,
2013-07-07 16:44:00,89.0,70.0,-100.00,SSW,210,3.0,10.0,54,0.00,,,1.36,649.000000,,2013-07-07 21:44:00,
2013-07-07 16:53:00,89.0,70.0,-100.00,SSW,210,3.0,10.0,54,0.00,,,1.36,649.000000,,2013-07-07 21:53:00,
2013-07-07 17:01:00,89.0,70.0,-100.00,SSW,210,3.0,10.0,54,0.00,,,1.36,649.000000,,2013-07-07 22:01:00,
2013-07-07 17:11:00,89.0,70.0,-100.00,SSW,210,3.0,10.0,54,0.00,,,1.36,649.000000,,2013-07-07 22:11:00,
2013-07-07 17:44:00,88.0,70.0,-100.00,SW,234,4.0,7.0,56,0.00,,,1.36,488.000000,,2013-07-07 22:44:00,
2013-07-07 17:54:00,88.0,70.0,-100.00,SW,234,4.0,7.0,56,0.00,,,1.36,488.000000,,2013-07-07 22:54:00,
2013-07-07 18:02:00,88.0,70.0,-100.00,SW,234,4.0,7.0,56,0.00,,,1.36,488.000000,,2013-07-07 23:02:00,
2013-07-07 18:12:00,88.0,70.0,-100.00,SW,234,4.0,7.0,56,0.00,,,1.36,488.000000,,2013-07-07 23:12:00,
2013-07-07 18:43:00,89.0,72.0,-100.00,SW,218,1.0,6.0,57,0.00,,,1.36,320.000000,,2013-07-07 23:43:00,
2013-07-07 18:53:00,89.0,72.0,-100.00,SW,218,1.0,6.0,57,0.00,,,1.36,320.000000,,2013-07-07 23:53:00,
2013-07-07 19:01:00,89.0,72.0,-100.00,SW,218,1.0,6.0,57,0.00,,,1.36,320.000000,,2013-07-08 00:01:00,
2013-07-07 19:12:00,89.0,72.0,-100.00,SW,218,1.0,6.0,57,0.00,,,1.36,320.000000,,2013-07-08 00:12:00,
2013-07-07 19:43:00,86.0,76.0,-100.00,West,263,0.0,3.0,73,0.00,,,-99.99,153.000000,,2013-07-08 00:43:00,
2013-07-07 19:53:00,86.0,76.0,-100.00,West,263,0.0,3.0,73,0.00,,,-99.99,153.000000,,2013-07-08 00:53:00,
2013-07-07 20:01:00,86.0,76.0,-100.00,West,263,0.0,3.0,73,0.00,,,-99.99,153.000000,,2013-07-08 01:01:00,
2013-07-07 20:11:00,86.0,76.0,-100.00,West,263,0.0,3.0,73,0.00,,,-99.99,153.000000,,2013-07-08 01:11:00,
2013-07-07 20:43:00,77.0,75.0,-100.00,ENE,60,0.0,0.0,93,0.00,,,1.36,27.000000,,2013-07-08 01:43:00,
2013-07-07 20:53:00,77.0,75.0,-100.00,ENE,60,0.0,0.0,93,0.00,,,1.36,27.000000,,2013-07-08 01:53:00,
2013-07-07 21:02:00,77.0,75.0,-100.00,ENE,60,0.0,0.0,93,0.00,,,1.36,27.000000,,2013-07-08 02:02:00,
2013-07-07 21:11:00,77.0,75.0,-100.00,ENE,60,0.0,0.0,93,0.00,,,1.36,27.000000,,2013-07-08 02:11:00,
2013-07-07 21:43:00,73.0,73.0,-100.00,SW,216,0.0,2.0,99,0.00,,,1.36,0.000000,,2013-07-08 02:43:00,
2013-07-07 21:52:00,73.0,73.0,-100.00,SW,216,0.0,2.0,99,0.00,,,1.36,0.000000,,2013-07-08 02:52:00,
2013-07-07 22:01:00,73.0,73.0,-100.00,SW,216,0.0,2.0,99,0.00,,,1.36,0.000000,,2013-07-08 03:01:00,
2013-07-07 22:12:00,73.0,73.0,-100.00,SW,216,0.0,2.0,99,0.00,,,1.36,0.000000,,2013-07-08 03:12:00,
2013-07-07 22:42:00,71.0,71.0,-100.00,SSW,207,1.0,2.0,100,0.00,,,0.17,0.000000,,2013-07-08 03:42:00,
2013-07-07 22:52:00,71.0,71.0,-100.00,SSW,207,1.0,2.0,100,0.00,,,0.17,0.000000,,2013-07-08 03:52:00,
2013-07-07 23:02:00,71.0,71.0,-100.00,SSW,207,1.0,2.0,100,0.00,,,0.17,0.000000,,2013-07-08 04:02:00,
2013-07-07 23:12:00,71.0,71.0,-100.00,SSW,207,1.0,2.0,100,0.00,,,0.17,0.000000,,2013-07-08 04:12:00,
2013-07-07 23:42:00,70.0,70.0,-100.00,South,185,0.0,2.0,100,0.00,,,0.09,0.000000,,2013-07-08 04:42:00,
2013-07-07 23:53:00,70.0,70.0,-100.00,South,185,0.0,2.0,100,0.00,,,0.09,0.000000,,2013-07-08 04:53:00,